Portada
METAR-TAF:

METAR-TAF

Aeropuertos :

Aeropuerto Internacional de Seattle-Tacoma

Seattle / Tacoma, Washington, Estados Unidos

latitud: 47-26-41N, longitud: 122-18-49W, altitud: 130 m

Observación

El informe se hizo hace 19 minutos, a las 00:53 UTC
Viento 12 kt del norte
Temperatura 7°C
Humedad 61%
Presión 1027 hPa
Visibilidad: 16.1 km
Cielo despejado

METAR: KSEA 190053Z 35012KT 10SM CLR 07/00 A3032 RMK AO2 SLP277 T00720000

Hora: 17:12 (01:12 UTC)

Pronóstico

El informe se hizo hace 1 hora y 52 minutos, a las 23:20 UTC
Pronóstico válido del 19 a las 00 UTC al 20 a las 06 UTC
Viento 10 kt del norte-noroeste
Visibilidad: 10 km
Cielo despejado
A partir de las 19 a las 0600 UTC
Viento 5 kt del noreste
Visibilidad: 10 km
Cielo despejado
A partir de las 19 a las 1500 UTC
Viento 7 kt del noreste
Visibilidad: 10 km
Cielo despejado

TAF: KSEA 182320Z 1900/2006 34010KT P6SM SKC FM190600 05005KT P6SM SKC FM191500 04007KT P6SM SKC

Observaciones y pronósticos meteorológicos de más de 4000 aeropuertos (mensajes METAR y TAF).

Los puntos amarillos y rojos representan las estaciones disponibles.

Ponga el ratón en el punto deseado para ver el nombre de la estación.

Haga clic para ver las observaciones y los pronósticos meteorológicos.

Para cambiar el mapa : haga clic en los botones verdes con una cruz de color negro para hacer un zoom, en el botón verde con un guión para alejar o en las flechas verdes para mapas adyacentes.


METAR-TAF: